Time;durP1;ratioP1;P1;durP2;ratioP2;P2;SDS_P1;SDS_P2;PMS_P1;PMS_P2;Temp;Humidity;BMP_temperature;BMP_pressure;BME280_temperature;BME280_humidity;BME280_pressure;Samples;Min_cycle;Max_cycle;Signal;HPM_P1;HPM_P2
2022/09/17 00:00:30;;;;;;;10.95;4.03;;;;;;;12.47;77.90;99797.47;5112323;28;20048;-64
2022/09/17 00:02:58;;;;;;;;;;;;;;;12.56;76.17;99803.81;5113079;28;20067;-63
2022/09/17 00:05:26;;;;;;;9.32;3.50;;;;;;;12.29;77.00;99807.19;5111994;28;19920;-62
2022/09/17 00:07:53;;;;;;;8.65;2.95;;;;;;;12.31;76.96;99804.88;5110229;28;20048;-65
2022/09/17 00:10:22;;;;;;;7.95;3.10;;;;;;;12.33;77.36;99814.53;5112515;28;20058;-64
2022/09/17 00:12:50;;;;;;;10.05;4.00;;;;;;;12.31;76.86;99807.69;5112093;28;20063;-64
2022/09/17 00:15:17;;;;;;;9.70;3.47;;;;;;;12.28;77.45;99816.72;5112134;28;20063;-64
2022/09/17 00:17:45;;;;;;;10.75;3.83;;;;;;;12.28;77.04;99820.31;5104712;28;20048;-65
2022/09/17 00:20:13;;;;;;;8.10;3.80;;;;;;;12.43;77.41;99824.47;5091030;28;20066;-63
2022/09/17 00:22:41;;;;;;;6.43;3.53;;;;;;;12.52;76.44;99816.03;5112086;28;20047;-65
2022/09/17 00:25:09;;;;;;;10.90;4.05;;;;;;;12.49;77.34;99825.06;5115011;28;20492;-65
2022/09/17 00:27:36;;;;;;;9.80;4.35;;;;;;;12.57;76.07;99833.38;5116140;28;20055;-64
2022/09/17 00:30:04;;;;;;;9.65;4.90;;;;;;;12.63;75.99;99827.56;5115907;28;20063;-65
2022/09/17 00:32:32;;;;;;;8.45;4.18;;;;;;;12.55;76.13;99823.69;5115853;27;20047;-64
2022/09/17 00:34:59;;;;;;;10.38;4.45;;;;;;;12.50;76.04;99829.50;5109854;28;20493;-65
2022/09/17 00:37:32;;;;;;;12.52;5.18;;;;;;;12.52;76.62;99833.59;5095491;28;20059;-65
2022/09/17 00:40:00;;;;;;;10.52;5.38;;;;;;;12.50;75.99;99835.91;5095364;28;20063;-64
2022/09/17 00:42:27;;;;;;;9.20;5.25;;;;;;;12.54;76.15;99834.06;5095535;28;20052;-64
2022/09/17 00:44:56;;;;;;;7.57;4.90;;;;;;;12.52;76.06;99827.19;5094786;28;20492;-64
2022/09/17 00:47:29;;;;;;;11.45;6.47;;;;;;;12.60;74.77;99831.88;5096231;28;20101;-64
2022/09/17 00:50:01;;;;;;;8.65;5.43;;;;;;;12.49;75.23;99833.44;5115595;28;20526;-64
2022/09/17 00:52:35;;;;;;;11.77;6.00;;;;;;;12.39;75.87;99832.72;5115641;28;20054;-65
2022/09/17 00:55:12;;;;;;;13.30;6.28;;;;;;;12.45;75.80;99830.53;5115712;28;20411;-65
2022/09/17 00:57:41;;;;;;;11.13;6.07;;;;;;;12.30;76.70;99833.94;5115209;28;20052;-65
2022/09/17 01:00:09;;;;;;;9.82;5.78;;;;;;;12.34;75.98;99826.53;5115823;28;20404;-65
2022/09/17 01:02:37;;;;;;;10.37;6.63;;;;;;;12.32;75.57;99831.63;5111752;28;20411;-65
2022/09/17 01:05:06;;;;;;;10.85;6.53;;;;;;;12.39;76.19;99837.50;5114278;28;20059;-65
2022/09/17 01:07:49;;;;;;;12.35;8.02;;;;;;;12.36;75.58;99836.19;5115427;28;20530;-65
2022/09/17 01:10:34;;;;;;;9.38;6.75;;;;;;;12.24;75.27;99843.69;5115270;28;20506;-64
2022/09/17 01:13:18;;;;;;;12.73;8.30;;;;;;;12.22;75.42;99837.63;5103600;28;20055;-65
2022/09/17 01:15:51;;;;;;;16.10;8.00;;;;;;;12.27;75.22;99840.22;5094770;28;20048;-65
2022/09/17 01:18:29;;;;;;;12.15;7.22;;;;;;;12.26;75.01;99841.38;5094562;28;20055;-65
2022/09/17 01:21:29;;;;;;;12.57;7.15;;;;;;;12.26;75.20;99833.81;5095018;28;20048;-64
2022/09/17 01:24:35;;;;;;;13.35;7.35;;;;;;;12.22;75.13;99849.63;5095093;28;20071;-65
2022/09/17 01:27:42;;;;;;;12.73;7.20;;;;;;;12.21;75.62;99844.38;5108983;28;20058;-65
2022/09/17 01:30:21;;;;;;;11.07;7.65;;;;;;;12.12;75.28;99836.91;5101550;28;20056;-65
2022/09/17 01:32:58;;;;;;;10.05;7.07;;;;;;;12.21;75.30;99849.97;5114871;28;20496;-65
2022/09/17 01:35:34;;;;;;;11.38;6.72;;;;;;;12.21;75.60;99834.03;5114495;28;20508;-65
2022/09/17 01:38:08;;;;;;;15.27;7.38;;;;;;;12.06;75.69;99838.25;5114808;28;20055;-65
2022/09/17 01:40:44;;;;;;;11.65;6.45;;;;;;;12.15;75.42;99846.56;5103725;28;20059;-65
2022/09/17 01:43:20;;;;;;;15.27;5.85;;;;;;;12.17;75.32;99835.88;5094266;28;20071;-65
2022/09/17 01:45:50;;;;;;;9.25;5.40;;;;;;;12.17;75.74;99852.63;5093606;28;20487;-65
2022/09/17 01:48:21;;;;;;;11.30;5.65;;;;;;;12.24;74.69;99843.69;5094255;28;20052;-65
2022/09/17 01:50:53;;;;;;;9.60;5.30;;;;;;;12.15;74.75;99849.34;5094352;28;20484;-65
2022/09/17 01:53:25;;;;;;;11.88;6.90;;;;;;;11.99;75.66;99849.16;5094030;28;20063;-66
2022/09/17 01:55:57;;;;;;;13.85;6.85;;;;;;;11.95;75.99;99848.19;5106460;28;20051;-65
2022/09/17 01:58:31;;;;;;;14.75;8.35;;;;;;;11.91;75.95;99852.81;5114427;28;20063;-65
2022/09/17 02:01:04;;;;;;;15.30;8.88;;;;;;;11.86;76.29;99856.56;5114402;28;20054;-65
2022/09/17 02:03:37;;;;;;;12.82;9.88;;;;;;;11.83;76.23;99859.25;5109901;28;20051;-66
2022/09/17 02:06:09;;;;;;;18.02;10.65;;;;;;;11.78;76.78;99854.69;5114260;28;20047;-65
2022/09/17 02:08:43;;;;;;;16.55;10.63;;;;;;;11.75;76.68;99850.56;5110051;28;20503;-66
2022/09/17 02:11:15;;;;;;;18.20;11.43;;;;;;;11.74;77.08;99853.72;5093543;28;20048;-66
2022/09/17 02:13:52;;;;;;;16.50;11.90;;;;;;;11.73;77.35;99863.22;5093652;28;20063;-66
2022/09/17 02:16:27;;;;;;;17.85;11.73;;;;;;;11.70;77.40;99853.56;5093732;28;20059;-66
2022/09/17 02:19:05;;;;;;;22.17;14.40;;;;;;;11.69;77.21;99849.13;5093316;28;20056;-66
2022/09/17 02:21:45;;;;;;;20.77;14.45;;;;;;;11.72;77.28;99859.63;5093573;28;20693;-65
2022/09/17 02:24:17;;;;;;;23.23;14.05;;;;;;;11.77;76.84;99853.03;5093015;28;20056;-66
2022/09/17 02:26:53;;;;;;;27.70;14.55;;;;;;;11.77;77.22;99858.59;5093358;28;20044;-66
2022/09/17 02:29:31;;;;;;;25.80;17.00;;;;;;;11.71;77.35;99852.41;5092722;28;20055;-66
2022/09/17 02:31:59;;;;;;;26.67;16.17;;;;;;;11.70;77.27;99863.91;5093208;28;20059;-66
2022/09/17 02:34:29;;;;;;;17.98;13.82;;;;;;;11.67;77.72;99862.59;5092920;28;20056;-66
2022/09/17 02:36:58;;;;;;;26.30;17.35;;;;;;;11.72;77.75;99854.06;5092990;28;20059;-66
2022/09/17 02:39:26;;;;;;;27.15;16.98;;;;;;;11.62;77.92;99871.16;5092613;28;20055;-66
2022/09/17 02:42:01;;;;;;;24.38;17.27;;;;;;;11.63;78.18;99864.41;5101831;28;20058;-66
2022/09/17 02:44:37;;;;;;;25.02;15.90;;;;;;;11.71;78.26;99869.13;5113238;28;20052;-65
2022/09/17 02:47:24;;;;;;;26.48;17.10;;;;;;;11.75;77.43;99858.94;5112791;28;20051;-66
2022/09/17 02:50:30;;;;;;;24.58;17.13;;;;;;;11.71;77.98;99857.97;5113393;28;20059;-65
2022/09/17 02:53:16;;;;;;;21.95;14.60;;;;;;;11.82;77.89;99871.53;5062543;28;20428;-66
2022/09/17 02:55:52;;;;;;;22.27;15.60;;;;;;;11.91;77.71;99864.78;5109757;28;20048;-65
2022/09/17 02:58:26;;;;;;;21.30;15.55;;;;;;;11.95;78.18;99862.16;5113062;28;20055;-65
2022/09/17 03:00:58;;;;;;;24.40;15.13;;;;;;;11.93;77.71;99862.47;5112458;28;20055;-61
2022/09/17 03:03:31;;;;;;;24.40;16.70;;;;;;;11.76;78.16;99852.22;5092770;28;20500;-60
2022/09/17 03:06:01;;;;;;;21.60;14.77;;;;;;;11.87;77.84;99846.25;5092871;28;20055;-60
2022/09/17 03:08:29;;;;;;;22.70;12.75;;;;;;;11.95;76.91;99862.16;5092769;28;20052;-60
2022/09/17 03:10:57;;;;;;;21.95;13.65;;;;;;;11.96;77.21;99859.00;5091396;28;20414;-60
2022/09/17 03:13:24;;;;;;;19.50;11.90;;;;;;;11.97;76.82;99857.03;5092772;28;20064;-59
2022/09/17 03:15:51;;;;;;;18.80;11.38;;;;;;;12.09;76.63;99865.47;5091795;28;20396;-60
2022/09/17 03:18:18;;;;;;;14.52;10.35;;;;;;;12.19;76.15;99864.25;5117317;27;20399;-60
2022/09/17 03:20:46;;;;;;;18.55;9.93;;;;;;;12.25;76.80;99862.91;5133355;27;20062;-60
2022/09/17 03:23:15;;;;;;;15.57;9.00;;;;;;;12.29;76.73;99868.63;5124630;27;20411;-60
2022/09/17 03:25:42;;;;;;;16.45;8.43;;;;;;;12.25;75.96;99870.47;5092180;28;20048;-59
2022/09/17 03:28:09;;;;;;;13.48;7.50;;;;;;;12.31;74.79;99866.31;5103675;28;20055;-59
2022/09/17 03:30:37;;;;;;;14.18;8.23;;;;;;;12.31;75.33;99861.53;5094508;28;20052;-59
2022/09/17 03:33:04;;;;;;;11.93;6.88;;;;;;;12.35;75.24;99861.69;5092595;28;20055;-59
2022/09/17 03:35:31;;;;;;;11.90;6.30;;;;;;;12.37;74.72;99864.94;5092009;28;20060;-59
2022/09/17 03:37:59;;;;;;;11.70;6.20;;;;;;;12.40;75.26;99869.84;5092557;28;20052;-60
2022/09/17 03:40:27;;;;;;;14.52;5.97;;;;;;;12.44;75.07;99862.41;5092074;28;20378;-60
2022/09/17 03:42:55;;;;;;;10.90;4.60;;;;;;;12.44;74.56;99864.41;5091838;28;20389;-60
2022/09/17 03:45:22;;;;;;;9.80;4.95;;;;;;;12.39;74.40;99865.44;5108383;28;20105;-60
2022/09/17 03:47:49;;;;;;;12.50;5.10;;;;;;;12.32;74.89;99887.47;5112688;28;20059;-60
2022/09/17 03:50:17;;;;;;;12.57;4.47;;;;;;;12.30;74.77;99875.84;5112516;28;20052;-60
2022/09/17 03:52:44;;;;;;;14.63;6.47;;;;;;;12.22;74.71;99879.50;5112257;28;20079;-60
2022/09/17 03:55:11;;;;;;;14.60;5.40;;;;;;;12.25;74.32;99882.44;5112586;28;20056;-59
2022/09/17 03:57:40;;;;;;;14.07;5.72;;;;;;;12.25;74.72;99874.06;5112435;28;20488;-60
2022/09/17 04:00:08;;;;;;;12.13;5.43;;;;;;;12.18;75.04;99893.34;5095406;28;20075;-60
2022/09/17 04:02:35;;;;;;;14.73;6.15;;;;;;;12.19;74.50;99894.97;5095895;28;20052;-60
2022/09/17 04:05:03;;;;;;;15.15;5.85;;;;;;;12.18;74.73;99896.16;5095827;28;20055;-59
2022/09/17 04:07:30;;;;;;;13.38;6.30;;;;;;;12.16;74.53;99890.91;5096074;28;20059;-60
2022/09/17 04:09:57;;;;;;;15.15;6.95;;;;;;;12.17;74.43;99898.09;5095872;28;20068;-59
2022/09/17 04:12:25;;;;;;;13.98;6.45;;;;;;;12.15;74.71;99888.44;5095812;28;20051;-59
2022/09/17 04:14:53;;;;;;;15.30;5.85;;;;;;;12.14;74.74;99893.22;5096001;28;20447;-59
2022/09/17 04:17:21;;;;;;;16.35;6.97;;;;;;;12.14;74.65;99896.00;5119576;27;20047;-59
2022/09/17 04:19:48;;;;;;;11.88;5.70;;;;;;;12.05;74.62;99889.63;5136483;27;20051;-60
2022/09/17 04:22:16;;;;;;;14.73;6.65;;;;;;;11.98;75.17;99892.97;5137010;27;20051;-60
2022/09/17 04:24:43;;;;;;;15.98;6.60;;;;;;;11.96;74.70;99892.50;5136795;27;20407;-60
2022/09/17 04:27:10;;;;;;;11.48;5.68;;;;;;;11.79;75.27;99889.78;5123539;27;20058;-59
2022/09/17 04:29:38;;;;;;;13.90;5.63;;;;;;;11.83;75.21;99904.69;5115996;28;20381;-60
2022/09/17 04:32:06;;;;;;;12.13;5.63;;;;;;;11.83;75.61;99906.69;5115930;28;20056;-60
2022/09/17 04:34:34;;;;;;;14.93;5.88;;;;;;;11.81;75.23;99897.81;5115950;28;20056;-59
2022/09/17 04:37:01;;;;;;;11.07;5.65;;;;;;;11.81;75.01;99906.19;5115839;28;20059;-59
2022/09/17 04:39:28;;;;;;;13.07;5.85;;;;;;;11.75;75.95;99895.22;5116128;28;20507;-60
2022/09/17 04:41:56;;;;;;;16.40;6.15;;;;;;;11.73;75.45;99908.69;5114307;28;20522;-60
2022/09/17 04:44:23;;;;;;;11.77;6.05;;;;;;;11.75;75.71;99906.38;5115785;28;20491;-60
2022/09/17 04:46:50;;;;;;;15.75;5.57;;;;;;;11.74;75.46;99904.75;5115592;28;20074;-60
2022/09/17 04:49:19;;;;;;;14.45;5.47;;;;;;;11.72;75.58;99912.63;5115828;28;20399;-59
2022/09/17 04:51:46;;;;;;;11.50;4.68;;;;;;;11.73;75.54;99914.25;5115744;28;20062;-60
2022/09/17 04:54:14;;;;;;;9.50;4.65;;;;;;;11.72;75.75;99914.63;5115538;28;20056;-60
2022/09/17 04:56:41;;;;;;;14.80;5.43;;;;;;;11.75;75.76;99913.94;5095015;28;20062;-59
2022/09/17 04:59:08;;;;;;;9.63;4.15;;;;;;;11.71;75.87;99919.34;5095317;28;20492;-59
2022/09/17 05:01:35;;;;;;;9.20;4.85;;;;;;;11.68;75.89;99914.47;5094776;28;20044;-59
2022/09/17 05:04:03;;;;;;;15.57;5.25;;;;;;;11.69;75.91;99916.09;5095065;28;20052;-60
2022/09/17 05:06:31;;;;;;;13.60;4.10;;;;;;;11.64;76.39;99913.50;5095071;28;20056;-59
2022/09/17 05:08:59;;;;;;;13.40;4.03;;;;;;;11.73;75.55;99916.22;5094477;28;20048;-59
2022/09/17 05:11:26;;;;;;;10.48;3.80;;;;;;;11.78;76.02;99916.88;5094066;28;20052;-60
2022/09/17 05:13:53;;;;;;;11.88;3.70;;;;;;;11.86;75.45;99917.16;5094941;28;20083;-60
2022/09/17 05:16:21;;;;;;;11.65;3.53;;;;;;;11.90;75.42;99913.38;5094963;28;20063;-60
2022/09/17 05:18:50;;;;;;;10.15;2.97;;;;;;;11.94;75.41;99922.72;5127977;27;20058;-59
2022/09/17 05:21:17;;;;;;;13.57;3.50;;;;;;;12.02;75.54;99926.63;5135703;27;20043;-60
2022/09/17 05:23:46;;;;;;;10.50;3.40;;;;;;;12.06;75.08;99924.78;5130190;27;20052;-60
2022/09/17 05:26:14;;;;;;;8.43;2.92;;;;;;;12.10;75.16;99917.38;5115082;28;20073;-60
2022/09/17 05:28:41;;;;;;;10.25;2.78;;;;;;;12.17;74.52;99920.44;5114913;28;20055;-59
2022/09/17 05:31:09;;;;;;;11.15;3.33;;;;;;;12.23;73.71;99918.28;5115090;28;20063;-59
2022/09/17 05:33:36;;;;;;;11.52;2.70;;;;;;;12.21;74.13;99917.78;5114736;28;20051;-59
2022/09/17 05:36:03;;;;;;;11.48;3.30;;;;;;;12.28;73.61;99925.63;5114925;28;20059;-60
2022/09/17 05:38:31;;;;;;;9.68;2.45;;;;;;;12.29;73.41;99924.47;5111620;28;20051;-60
2022/09/17 05:41:04;;;;;;;7.75;3.25;;;;;;;12.36;73.09;99928.34;5114568;28;20483;-60
2022/09/17 05:43:31;;;;;;;10.73;2.42;;;;;;;12.38;73.31;99934.41;5114887;28;20051;-59
2022/09/17 05:46:01;;;;;;;10.15;2.85;;;;;;;12.46;72.81;99931.91;5114386;28;20051;-59
2022/09/17 05:48:28;;;;;;;15.35;3.67;;;;;;;12.46;72.74;99935.50;5114556;28;20058;-59
2022/09/17 05:50:56;;;;;;;9.90;3.15;;;;;;;12.49;72.30;99939.59;5112696;28;20048;-59
2022/09/17 05:53:23;;;;;;;8.90;2.78;;;;;;;12.47;72.26;99939.94;5114105;28;20054;-59
2022/09/17 05:55:51;;;;;;;10.35;2.50;;;;;;;12.43;72.47;99936.22;5113866;28;20066;-60
2022/09/17 05:58:19;;;;;;;5.32;1.90;;;;;;;12.41;71.73;99943.28;5098563;28;20055;-60
2022/09/17 06:00:47;;;;;;;10.07;3.03;;;;;;;12.51;72.21;99943.69;5094006;28;20460;-60
2022/09/17 06:03:16;;;;;;;9.57;2.35;;;;;;;12.57;71.54;99945.09;5093795;28;20099;-59
2022/09/17 06:05:52;;;;;;;7.85;2.72;;;;;;;12.59;71.18;99945.59;5093558;28;20056;-60
2022/09/17 06:08:19;;;;;;;7.70;2.38;;;;;;;12.72;71.33;99952.06;5094134;28;20412;-60
2022/09/17 06:10:46;;;;;;;8.60;2.53;;;;;;;12.78;71.15;99947.09;5093588;28;20056;-60
2022/09/17 06:13:13;;;;;;;6.95;2.78;;;;;;;13.00;69.79;99948.72;5094155;28;20071;-59
2022/09/17 06:15:42;;;;;;;8.15;2.85;;;;;;;13.14;69.38;99954.78;5093937;28;20412;-59
2022/09/17 06:18:09;;;;;;;7.32;2.10;;;;;;;13.20;69.53;99967.41;5109027;27;20052;-60
2022/09/17 06:20:37;;;;;;;6.30;1.90;;;;;;;13.21;68.91;99965.44;5108186;28;20067;-60
2022/09/17 06:23:04;;;;;;;7.95;2.25;;;;;;;13.25;68.82;99969.19;5113049;28;20397;-59
2022/09/17 06:25:32;;;;;;;9.77;2.50;;;;;;;13.42;68.69;99962.63;5099615;28;20412;-59
2022/09/17 06:28:02;;;;;;;5.70;2.50;;;;;;;13.55;69.09;99966.25;5100318;28;20066;-60
2022/09/17 06:30:29;;;;;;;;;;;;;;;13.72;68.69;99974.44;5097523;28;20051;-60
2022/09/17 06:33:00;;;;;;;6.20;2.15;;;;;;;13.90;67.98;99974.22;5105353;28;19926;-60
2022/09/17 06:35:27;;;;;;;8.35;2.25;;;;;;;14.06;66.24;99971.53;5109868;28;20583;-60
2022/09/17 06:37:54;;;;;;;4.43;1.70;;;;;;;14.27;65.64;99974.22;5103698;28;20055;-60
2022/09/17 06:40:22;;;;;;;8.00;2.30;;;;;;;14.45;63.94;99972.78;5105424;28;20183;-60
2022/09/17 06:42:49;;;;;;;6.03;2.00;;;;;;;14.49;63.77;99976.53;5096457;28;20416;-60
2022/09/17 06:45:17;;;;;;;6.45;2.22;;;;;;;14.53;64.01;99973.81;5101732;28;20070;-60
2022/09/17 06:47:44;;;;;;;6.88;1.83;;;;;;;14.59;64.46;99978.88;5111380;28;20415;-60
2022/09/17 06:50:13;;;;;;;6.35;1.98;;;;;;;14.63;62.58;99978.16;5103934;28;20047;-60
2022/09/17 06:52:48;;;;;;;5.53;1.63;;;;;;;14.58;63.19;99991.25;5101568;28;20765;-60
2022/09/17 06:55:15;;;;;;;6.60;1.70;;;;;;;14.36;62.58;99980.50;5109083;28;20415;-60
2022/09/17 06:57:42;;;;;;;5.43;1.80;;;;;;;14.30;64.02;99982.75;5094294;28;20050;-60
2022/09/17 07:00:11;;;;;;;8.25;2.58;;;;;;;14.33;64.36;99984.81;5105780;28;20056;-60
2022/09/17 07:02:38;;;;;;;9.17;2.03;;;;;;;14.25;64.26;99991.38;5102069;28;20403;-60
2022/09/17 07:05:07;;;;;;;6.63;2.20;;;;;;;14.14;63.75;99999.41;5100946;27;20051;-60
2022/09/17 07:07:35;;;;;;;6.28;1.90;;;;;;;14.09;63.89;100005.28;5113528;27;21437;-60
2022/09/17 07:10:03;;;;;;;5.90;2.63;;;;;;;14.10;63.37;100009.69;5101010;27;20048;-60
2022/09/17 07:12:30;;;;;;;11.43;2.10;;;;;;;14.12;64.54;100000.94;5105136;28;20484;-60
2022/09/17 07:14:57;;;;;;;6.88;1.75;;;;;;;14.15;63.43;100003.03;5108622;28;20059;-60
2022/09/17 07:17:24;;;;;;;7.78;2.38;;;;;;;14.11;63.64;100002.09;5108037;27;20043;-60
2022/09/17 07:19:51;;;;;;;9.95;2.30;;;;;;;14.27;64.05;99994.63;5108217;28;20407;-60
2022/09/17 07:22:19;;;;;;;11.05;2.20;;;;;;;14.26;63.69;100000.56;5110623;27;20411;-60
2022/09/17 07:24:47;;;;;;;9.77;2.15;;;;;;;14.37;62.65;100001.75;5104599;28;20051;-60
2022/09/17 07:27:14;;;;;;;6.45;2.25;;;;;;;14.44;63.40;99989.94;5109465;28;20047;-60
2022/09/17 07:29:42;;;;;;;5.57;2.28;;;;;;;14.52;63.32;99981.41;5099762;28;20512;-60
2022/09/17 07:32:09;;;;;;;6.18;2.80;;;;;;;14.64;62.95;99988.22;5106532;28;20047;-60
2022/09/17 07:34:36;;;;;;;7.50;2.17;;;;;;;14.78;61.73;99989.44;5094794;28;20055;-61
2022/09/17 07:37:03;;;;;;;6.03;2.25;;;;;;;15.79;61.09;99989.44;5108268;28;20050;-60
2022/09/17 07:39:31;;;;;;;8.00;2.63;;;;;;;17.24;57.28;99981.97;5098392;28;20048;-60
2022/09/17 07:41:59;;;;;;;5.53;2.25;;;;;;;18.10;53.80;99979.91;5104666;28;20052;-60
2022/09/17 07:44:27;;;;;;;7.83;2.30;;;;;;;18.81;51.96;99988.63;5103417;28;20051;-60
2022/09/17 07:46:54;;;;;;;5.45;2.20;;;;;;;19.35;50.48;99985.69;5056376;28;20060;-59
2022/09/17 07:49:22;;;;;;;7.35;2.97;;;;;;;19.86;48.33;99991.50;5050998;28;20120;-59
2022/09/17 07:51:49;;;;;;;6.78;2.60;;;;;;;21.13;46.07;99996.81;5058258;28;20049;-59
2022/09/17 07:54:16;;;;;;;6.10;2.58;;;;;;;22.46;42.92;99985.72;5052197;28;20424;-59
2022/09/17 07:56:44;;;;;;;5.22;2.47;;;;;;;22.50;41.74;99981.63;5051969;28;20064;-58
2022/09/17 07:59:13;;;;;;;7.07;2.38;;;;;;;22.19;40.08;99979.63;5058263;28;20049;-58
2022/09/17 08:01:41;;;;;;;6.50;2.13;;;;;;;22.89;40.32;99977.91;5053621;28;20048;-58
2022/09/17 08:04:08;;;;;;;6.43;2.20;;;;;;;24.41;38.48;99978.59;5055722;28;20057;-58
2022/09/17 08:06:39;;;;;;;6.75;2.10;;;;;;;24.06;37.88;99971.19;5054457;28;20053;-58
2022/09/17 08:09:08;;;;;;;5.82;2.15;;;;;;;24.11;36.69;99973.59;5056769;28;20056;-58
2022/09/17 08:11:36;;;;;;;6.65;2.55;;;;;;;23.79;37.61;99977.50;5050007;28;20060;-58
2022/09/17 08:14:03;;;;;;;7.30;2.70;;;;;;;23.83;38.00;99988.84;5050440;28;20393;-58
2022/09/17 08:16:32;;;;;;;5.00;2.00;;;;;;;23.80;37.47;99973.41;5058877;28;20048;-58
2022/09/17 08:18:59;;;;;;;6.80;2.33;;;;;;;24.39;37.52;99981.06;5059431;28;20049;-58
2022/09/17 08:21:26;;;;;;;5.30;2.00;;;;;;;25.35;35.17;99989.00;5053891;28;20056;-58
2022/09/17 08:23:54;;;;;;;4.82;2.05;;;;;;;26.61;32.98;99973.59;5060344;28;20061;-59
2022/09/17 08:26:22;;;;;;;6.05;1.70;;;;;;;27.69;30.81;99975.00;5055103;28;20045;-59
2022/09/17 08:28:53;;;;;;;3.65;1.52;;;;;;;28.48;29.64;99964.47;5057372;28;20053;-59
2022/09/17 08:31:22;;;;;;;4.93;2.03;;;;;;;28.95;29.37;99964.00;5065684;28;20102;-59
2022/09/17 08:33:50;;;;;;;4.43;1.80;;;;;;;30.19;28.08;99957.72;5065668;28;20051;-59
2022/09/17 08:36:18;;;;;;;;;;;;;;;30.09;26.50;99953.13;5057118;28;20615;-58
2022/09/17 08:38:46;;;;;;;5.43;2.28;;;;;;;30.13;27.52;99953.81;5062162;28;20307;-59
2022/09/17 08:41:23;;;;;;;5.10;1.70;;;;;;;30.06;26.17;99965.56;5050753;28;20500;-58
2022/09/17 08:44:01;;;;;;;4.65;1.95;;;;;;;30.01;26.58;99966.13;5056659;28;20051;-58
2022/09/17 08:46:32;;;;;;;4.68;1.60;;;;;;;30.05;25.55;99969.69;5098267;28;20497;-58
2022/09/17 08:49:13;;;;;;;5.13;1.92;;;;;;;31.08;25.27;99967.31;5111628;28;20407;-59
2022/09/17 08:51:53;;;;;;;5.75;1.80;;;;;;;30.88;25.27;99968.47;5104973;28;20052;-58
2022/09/17 08:54:28;;;;;;;4.78;2.10;;;;;;;31.35;24.13;99967.50;5105921;28;20040;-59
2022/09/17 08:57:10;;;;;;;4.50;1.70;;;;;;;31.96;23.25;99967.97;5112893;28;20055;-58
2022/09/17 08:59:45;;;;;;;4.32;1.40;;;;;;;30.47;24.86;99972.38;5094592;28;20586;-58
2022/09/17 09:02:26;;;;;;;5.22;1.40;;;;;;;28.61;26.32;99976.84;5107278;28;20048;-59
2022/09/17 09:05:08;;;;;;;5.13;1.48;;;;;;;28.66;26.28;99969.75;5105943;28;20051;-59
2022/09/17 09:07:42;;;;;;;4.03;1.60;;;;;;;28.04;27.23;99967.63;5103432;28;20051;-59
2022/09/17 09:10:18;;;;;;;3.15;1.25;;;;;;;27.51;28.20;99975.44;5101138;28;20419;-58
2022/09/17 09:12:47;;;;;;;3.50;1.48;;;;;;;27.44;28.14;99972.72;5097172;28;20444;-58
2022/09/17 09:15:38;;;;;;;3.35;1.23;;;;;;;26.72;28.62;99974.19;5103355;28;20048;-58
2022/09/17 09:18:16;;;;;;;4.57;1.40;;;;;;;25.88;29.20;99985.34;5113133;27;20062;-58
2022/09/17 09:20:50;;;;;;;3.42;1.55;;;;;;;25.27;30.06;99976.88;5135796;27;20058;-58
2022/09/17 09:23:20;;;;;;;4.95;1.60;;;;;;;26.31;29.81;99972.44;5135614;27;20487;-58
2022/09/17 09:25:55;;;;;;;4.18;1.52;;;;;;;27.86;27.19;99961.53;5135434;27;20055;-58
2022/09/17 09:28:40;;;;;;;2.88;1.40;;;;;;;27.80;27.71;99966.16;5135557;27;20055;-58
2022/09/17 09:31:26;;;;;;;3.72;1.10;;;;;;;28.17;26.43;99962.00;5097008;27;20066;-58
2022/09/17 09:33:54;;;;;;;4.32;1.35;;;;;;;26.65;27.85;99975.13;5094203;28;20412;-59
2022/09/17 09:36:22;;;;;;;3.15;1.70;;;;;;;28.00;27.50;99971.84;5094948;28;20044;-58
2022/09/17 09:38:56;;;;;;;4.78;1.13;;;;;;;26.89;28.12;99975.88;5100510;28;20048;-58
2022/09/17 09:41:31;;;;;;;2.72;1.05;;;;;;;27.21;27.90;99965.00;5108185;28;20089;-58
2022/09/17 09:44:02;;;;;;;4.00;1.55;;;;;;;27.25;28.31;99971.50;5103219;28;20529;-58
2022/09/17 09:46:49;;;;;;;3.28;1.30;;;;;;;27.71;27.38;99975.38;5102086;28;20047;-58
2022/09/17 09:49:31;;;;;;;4.10;1.42;;;;;;;29.17;25.73;99967.09;5095245;28;20043;-58
2022/09/17 09:52:13;;;;;;;3.60;1.15;;;;;;;29.40;25.21;99979.50;5095060;28;20075;-58
2022/09/17 09:54:54;;;;;;;4.82;1.48;;;;;;;27.27;26.88;99969.78;5101150;28;20044;-58
2022/09/17 09:57:31;;;;;;;3.03;1.20;;;;;;;27.44;26.58;99970.66;5111754;28;20530;-58
2022/09/17 10:00:25;;;;;;;3.67;1.35;;;;;;;27.60;27.14;99981.34;5114305;28;20064;-58
2022/09/17 10:02:57;;;;;;;3.80;1.20;;;;;;;28.18;26.05;99972.22;5114128;28;20052;-57
2022/09/17 10:05:24;;;;;;;4.95;1.45;;;;;;;29.65;25.72;99981.59;5108486;28;20075;-57
2022/09/17 10:07:53;;;;;;;4.53;1.15;;;;;;;28.69;24.87;99957.38;5106142;28;20051;-58
2022/09/17 10:10:21;;;;;;;6.68;2.20;;;;;;;27.07;27.02;99969.00;5114389;28;20066;-58
2022/09/17 10:12:48;;;;;;;4.80;1.80;;;;;;;26.52;28.00;99971.25;5114086;28;20062;-58
2022/09/17 10:15:25;;;;;;;3.40;1.13;;;;;;;26.48;27.36;99959.06;5105192;28;20047;-57
2022/09/17 10:18:12;;;;;;;4.75;1.73;;;;;;;25.83;28.80;99963.03;5122621;27;20051;-57
2022/09/17 10:20:50;;;;;;;4.13;1.30;;;;;;;24.51;29.68;99968.38;5134632;27;20051;-58
2022/09/17 10:23:19;;;;;;;5.15;1.35;;;;;;;23.64;31.14;99968.22;5134681;27;20047;-58
2022/09/17 10:25:48;;;;;;;3.33;1.15;;;;;;;23.20;31.52;99972.50;5134448;27;20059;-58
2022/09/17 10:28:35;;;;;;;4.05;1.20;;;;;;;23.67;31.50;99969.44;5122557;27;20056;-58
2022/09/17 10:31:09;;;;;;;3.35;1.20;;;;;;;23.05;32.25;99971.78;5093429;28;20166;-58
2022/09/17 10:33:40;;;;;;;4.28;1.42;;;;;;;22.22;33.28;99965.44;5109233;28;20055;-58
2022/09/17 10:36:13;;;;;;;3.22;1.52;;;;;;;22.08;34.43;99962.59;5113562;28;20435;-58
2022/09/17 10:38:44;;;;;;;3.97;1.27;;;;;;;23.81;32.10;99955.16;5106571;28;20051;-57
2022/09/17 10:41:17;;;;;;;2.63;1.10;;;;;;;24.81;30.80;99961.13;5112503;28;20177;-58
2022/09/17 10:43:45;;;;;;;3.67;1.10;;;;;;;26.05;28.36;99946.38;5113706;28;20052;-58
2022/09/17 10:46:16;;;;;;;4.43;1.50;;;;;;;27.50;28.22;99928.81;5113284;28;20054;-58
2022/09/17 10:48:47;;;;;;;2.85;0.80;;;;;;;27.24;27.50;99949.88;5113677;28;20047;-58
2022/09/17 10:51:23;;;;;;;3.65;0.90;;;;;;;26.54;28.00;99945.91;5113393;28;20058;-58
2022/09/17 10:54:43;;;;;;;3.53;1.05;;;;;;;26.74;28.01;99934.53;5093576;28;20051;-58
2022/09/17 10:57:18;;;;;;;5.65;1.10;;;;;;;27.94;25.76;99943.75;5011832;28;20390;-58
2022/09/17 11:00:08;;;;;;;2.25;1.30;;;;;;;29.13;23.72;99921.31;5030468;28;20395;-58
2022/09/17 11:03:06;;;;;;;2.35;1.23;;;;;;;30.50;22.94;99926.28;5070320;28;20485;-58
2022/09/17 11:05:45;;;;;;;4.15;1.17;;;;;;;31.13;22.25;99921.50;5091674;28;20114;-57
2022/09/17 11:08:20;;;;;;;1.83;0.70;;;;;;;30.60;22.38;99909.13;5106759;28;20052;-58
2022/09/17 11:10:55;;;;;;;1.40;0.60;;;;;;;29.92;22.03;99910.22;5111389;28;20051;-57
2022/09/17 11:13:36;;;;;;;2.13;0.82;;;;;;;29.30;23.30;99922.00;5113030;28;20055;-57
2022/09/17 11:16:16;;;;;;;2.53;0.80;;;;;;;27.96;24.73;99931.84;5112936;28;20326;-58
2022/09/17 11:18:54;;;;;;;3.22;1.27;;;;;;;28.20;24.67;99931.66;5128823;27;20534;-58
2022/09/17 11:21:39;;;;;;;2.00;0.80;;;;;;;27.86;24.83;99939.44;5133387;27;20058;-58
2022/09/17 11:24:31;;;;;;;2.83;1.23;;;;;;;28.82;24.87;99931.63;5122754;27;20036;-59
2022/09/17 11:27:11;;;;;;;2.42;1.00;;;;;;;29.70;23.63;99941.69;5092226;28;20287;-59
2022/09/17 11:30:01;;;;;;;3.10;1.17;;;;;;;30.44;22.27;99941.72;5092679;28;20167;-59
2022/09/17 11:32:58;;;;;;;1.77;0.90;;;;;;;30.77;21.79;99930.66;5092369;28;20056;-58
2022/09/17 11:35:29;;;;;;;2.53;1.20;;;;;;;31.70;21.55;99941.47;5085416;28;20055;-59
2022/09/17 11:38:07;;;;;;;1.40;0.90;;;;;;;32.19;21.27;99939.88;5097952;28;20048;-59
2022/09/17 11:40:40;;;;;;;2.47;0.63;;;;;;;30.55;21.96;99947.88;5112674;28;20052;-58
2022/09/17 11:43:18;;;;;;;2.67;0.70;;;;;;;29.05;24.40;99956.34;5112606;28;20051;-58
2022/09/17 11:45:58;;;;;;;2.50;0.70;;;;;;;27.77;25.90;99947.81;5112170;28;20059;-59
2022/09/17 11:48:34;;;;;;;1.88;0.60;;;;;;;27.01;26.81;99962.97;5112509;28;20056;-59
2022/09/17 11:51:23;;;;;;;1.90;0.70;;;;;;;26.00;28.14;99963.22;5111798;28;20052;-57